sensor_id;sensor_type;location;lat;lon;timestamp;pressure;altitude;pressure_sealevel;temperature;humidity
19789;BME280;10054;59.332;18.244;2023-04-19T00:00:47;103068.55;;;3.79;89.42
19789;BME280;10054;59.332;18.244;2023-04-19T00:03:16;103071.16;;;3.76;91.97
19789;BME280;10054;59.332;18.244;2023-04-19T00:05:45;103072.45;;;3.74;89.17
19789;BME280;10054;59.332;18.244;2023-04-19T00:08:14;103069.85;;;3.77;87.65
19789;BME280;10054;59.332;18.244;2023-04-19T00:10:43;103070.72;;;3.76;88.49
19789;BME280;10054;59.332;18.244;2023-04-19T00:13:12;103065.91;;;3.73;91.51
19789;BME280;10054;59.332;18.244;2023-04-19T00:15:41;103067.22;;;3.73;87.64
19789;BME280;10054;59.332;18.244;2023-04-19T00:18:10;103064.19;;;3.69;90.25
19789;BME280;10054;59.332;18.244;2023-04-19T00:20:39;103072.42;;;3.63;88.69
19789;BME280;10054;59.332;18.244;2023-04-19T00:23:08;103069.83;;;3.65;88.36
19789;BME280;10054;59.332;18.244;2023-04-19T00:25:37;103064.59;;;3.62;88.18
19789;BME280;10054;59.332;18.244;2023-04-19T00:28:06;103068.92;;;3.58;88.69
19789;BME280;10054;59.332;18.244;2023-04-19T00:30:35;103070.64;;;3.56;89.72
19789;BME280;10054;59.332;18.244;2023-04-19T00:33:04;103062.36;;;3.52;89.51
19789;BME280;10054;59.332;18.244;2023-04-19T00:35:34;103070.17;;;3.49;89.35
19789;BME280;10054;59.332;18.244;2023-04-19T00:38:04;103064.94;;;3.48;89.14
19789;BME280;10054;59.332;18.244;2023-04-19T00:40:33;103072.31;;;3.44;93.56
19789;BME280;10054;59.332;18.244;2023-04-19T00:43:04;103063.14;;;3.38;93.06
19789;BME280;10054;59.332;18.244;2023-04-19T00:45:35;103067.91;;;3.37;90.96
19789;BME280;10054;59.332;18.244;2023-04-19T00:48:04;103070.94;;;3.35;92.29
19789;BME280;10054;59.332;18.244;2023-04-19T00:50:33;103068.30;;;3.28;94.23
19789;BME280;10054;59.332;18.244;2023-04-19T00:53:03;103064.36;;;3.25;92.24
19789;BME280;10054;59.332;18.244;2023-04-19T00:55:32;103069.59;;;3.27;92.66
19789;BME280;10054;59.332;18.244;2023-04-19T00:58:01;103062.16;;;3.22;92.34
19789;BME280;10054;59.332;18.244;2023-04-19T01:00:31;103067.80;;;3.20;94.36
19789;BME280;10054;59.332;18.244;2023-04-19T01:03:00;103067.35;;;3.19;92.62
19789;BME280;10054;59.332;18.244;2023-04-19T01:05:30;103068.66;;;3.19;92.88
19789;BME280;10054;59.332;18.244;2023-04-19T01:07:59;103062.11;;;3.16;93.54
19789;BME280;10054;59.332;18.244;2023-04-19T01:10:28;103066.48;;;3.18;92.50
19789;BME280;10054;59.332;18.244;2023-04-19T01:12:57;103069.52;;;3.18;95.54
19789;BME280;10054;59.332;18.244;2023-04-19T01:15:26;103068.18;;;3.13;93.76
19789;BME280;10054;59.332;18.244;2023-04-19T01:17:56;103066.00;;;3.13;93.37
19789;BME280;10054;59.332;18.244;2023-04-19T01:20:25;103069.47;;;3.12;94.39
19789;BME280;10054;59.332;18.244;2023-04-19T01:25:41;103068.53;;;3.02;95.63
19789;BME280;10054;59.332;18.244;2023-04-19T01:28:10;103069.38;;;3.00;95.78
19789;BME280;10054;59.332;18.244;2023-04-19T01:30:40;103068.95;;;2.97;96.23
19789;BME280;10054;59.332;18.244;2023-04-19T01:33:09;103070.67;;;2.95;96.35
19789;BME280;10054;59.332;18.244;2023-04-19T01:35:38;103073.30;;;2.96;96.02
19789;BME280;10054;59.332;18.244;2023-04-19T01:38:07;103067.19;;;2.93;97.17
19789;BME280;10054;59.332;18.244;2023-04-19T01:40:36;103068.03;;;2.90;98.75
19789;BME280;10054;59.332;18.244;2023-04-19T01:43:06;103069.32;;;2.89;97.33
19789;BME280;10054;59.332;18.244;2023-04-19T01:45:35;103068.02;;;2.89;97.83
19789;BME280;10054;59.332;18.244;2023-04-19T01:48:04;103062.77;;;2.84;97.85
19789;BME280;10054;59.332;18.244;2023-04-19T01:50:34;103065.84;;;2.88;96.70
19789;BME280;10054;59.332;18.244;2023-04-19T01:53:04;103063.65;;;2.86;97.15
19789;BME280;10054;59.332;18.244;2023-04-19T01:55:33;103069.25;;;2.81;99.69
19789;BME280;10054;59.332;18.244;2023-04-19T01:58:02;103073.18;;;2.83;97.43
19789;BME280;10054;59.332;18.244;2023-04-19T02:00:31;103073.61;;;2.82;97.08
19789;BME280;10054;59.332;18.244;2023-04-19T02:03:01;103072.27;;;2.79;97.39
19789;BME280;10054;59.332;18.244;2023-04-19T02:05:30;103077.03;;;2.77;97.33
19789;BME280;10054;59.332;18.244;2023-04-19T02:08:00;103080.95;;;2.78;96.93
19789;BME280;10054;59.332;18.244;2023-04-19T02:10:30;103074.94;;;2.85;97.64
19789;BME280;10054;59.332;18.244;2023-04-19T02:12:59;103074.49;;;2.84;96.87
19789;BME280;10054;59.332;18.244;2023-04-19T02:15:28;103078.42;;;2.86;96.67
19789;BME280;10054;59.332;18.244;2023-04-19T02:17:57;103070.17;;;2.86;98.18
19789;BME280;10054;59.332;18.244;2023-04-19T02:20:26;103067.94;;;2.80;97.02
19789;BME280;10054;59.332;18.244;2023-04-19T02:22:55;103070.96;;;2.78;97.31
19789;BME280;10054;59.332;18.244;2023-04-19T02:25:24;103073.56;;;2.78;99.54
19789;BME280;10054;59.332;18.244;2023-04-19T02:27:53;103068.73;;;2.71;98.14
19789;BME280;10054;59.332;18.244;2023-04-19T02:30:22;103080.41;;;2.67;97.70
19789;BME280;10054;59.332;18.244;2023-04-19T02:32:51;103071.28;;;2.65;98.01
19789;BME280;10054;59.332;18.244;2023-04-19T02:35:21;103073.39;;;2.59;98.80
19789;BME280;10054;59.332;18.244;2023-04-19T02:37:50;103073.34;;;2.55;98.87
19789;BME280;10054;59.332;18.244;2023-04-19T02:40:19;103072.05;;;2.55;98.99
19789;BME280;10054;59.332;18.244;2023-04-19T02:42:51;103072.03;;;2.53;99.20
19789;BME280;10054;59.332;18.244;2023-04-19T02:45:21;103072.84;;;2.48;98.45
19789;BME280;10054;59.332;18.244;2023-04-19T02:47:49;103064.15;;;2.47;98.61
19789;BME280;10054;59.332;18.244;2023-04-19T02:50:19;103058.52;;;2.49;98.48
19789;BME280;10054;59.332;18.244;2023-04-19T02:52:49;103063.28;;;2.47;98.42
19789;BME280;10054;59.332;18.244;2023-04-19T02:55:19;103062.81;;;2.44;98.72
19789;BME280;10054;59.332;18.244;2023-04-19T02:57:50;103060.66;;;2.45;98.73
19789;BME280;10054;59.332;18.244;2023-04-19T03:00:19;103064.14;;;2.46;98.78
19789;BME280;10054;59.332;18.244;2023-04-19T03:02:50;103058.88;;;2.41;98.58
19789;BME280;10054;59.332;18.244;2023-04-19T03:05:19;103054.11;;;2.42;98.56
19789;BME280;10054;59.332;18.244;2023-04-19T03:07:48;103048.89;;;2.41;98.35
19789;BME280;10054;59.332;18.244;2023-04-19T03:10:17;103056.67;;;2.38;98.47
19789;BME280;10054;59.332;18.244;2023-04-19T03:12:46;103057.08;;;2.36;98.89
19789;BME280;10054;59.332;18.244;2023-04-19T03:15:16;103057.55;;;2.38;99.27
19789;BME280;10054;59.332;18.244;2023-04-19T03:17:46;103058.78;;;2.32;99.17
19789;BME280;10054;59.332;18.244;2023-04-19T03:20:16;103057.00;;;2.28;99.97
19789;BME280;10054;59.332;18.244;2023-04-19T03:22:45;103050.50;;;2.29;100.00
19789;BME280;10054;59.332;18.244;2023-04-19T03:25:14;103053.94;;;2.25;99.96
19789;BME280;10054;59.332;18.244;2023-04-19T03:27:45;103057.37;;;2.23;99.50
19789;BME280;10054;59.332;18.244;2023-04-19T03:30:15;103057.39;;;2.24;99.62
19789;BME280;10054;59.332;18.244;2023-04-19T03:32:46;103058.28;;;2.26;100.00
19789;BME280;10054;59.332;18.244;2023-04-19T03:35:15;103060.00;;;2.24;99.62
19789;BME280;10054;59.332;18.244;2023-04-19T03:37:44;103063.91;;;2.24;100.00
19789;BME280;10054;59.332;18.244;2023-04-19T03:40:14;103064.39;;;2.28;100.00
19789;BME280;10054;59.332;18.244;2023-04-19T03:42:43;103066.97;;;2.27;100.00
19789;BME280;10054;59.332;18.244;2023-04-19T03:45:13;103068.72;;;2.28;100.00
19789;BME280;10054;59.332;18.244;2023-04-19T03:47:44;103068.30;;;2.28;100.00
19789;BME280;10054;59.332;18.244;2023-04-19T03:50:13;103059.59;;;2.26;100.00
19789;BME280;10054;59.332;18.244;2023-04-19T03:52:43;103066.09;;;2.26;100.00
19789;BME280;10054;59.332;18.244;2023-04-19T03:55:13;103068.70;;;2.26;100.00
19789;BME280;10054;59.332;18.244;2023-04-19T03:57:42;103073.93;;;2.28;100.00
19789;BME280;10054;59.332;18.244;2023-04-19T04:00:13;103076.53;;;2.28;100.00
19789;BME280;10054;59.332;18.244;2023-04-19T04:02:47;103071.34;;;2.29;100.00
19789;BME280;10054;59.332;18.244;2023-04-19T04:05:16;103074.84;;;2.31;100.00
19789;BME280;10054;59.332;18.244;2023-04-19T04:07:45;103077.06;;;2.37;100.00
19789;BME280;10054;59.332;18.244;2023-04-19T04:10:14;103081.03;;;2.43;100.00
19789;BME280;10054;59.332;18.244;2023-04-19T04:12:43;103071.55;;;2.49;100.00
19789;BME280;10054;59.332;18.244;2023-04-19T04:15:14;103075.95;;;2.55;100.00
19789;BME280;10054;59.332;18.244;2023-04-19T04:17:46;103079.98;;;2.67;100.00
19789;BME280;10054;59.332;18.244;2023-04-19T04:20:15;103070.57;;;2.83;100.00
19789;BME280;10054;59.332;18.244;2023-04-19T04:22:44;103073.27;;;2.98;100.00
19789;BME280;10054;59.332;18.244;2023-04-19T04:25:15;103071.20;;;3.11;100.00
19789;BME280;10054;59.332;18.244;2023-04-19T04:27:45;103071.77;;;3.29;100.00
19789;BME280;10054;59.332;18.244;2023-04-19T04:30:16;103072.31;;;3.44;100.00
19789;BME280;10054;59.332;18.244;2023-04-19T04:32:45;103072.42;;;3.62;99.04
19789;BME280;10054;59.332;18.244;2023-04-19T04:35:16;103069.45;;;3.84;98.87
19789;BME280;10054;59.332;18.244;2023-04-19T04:37:50;103074.33;;;4.06;96.85
19789;BME280;10054;59.332;18.244;2023-04-19T04:40:21;103073.53;;;4.25;96.16
19789;BME280;10054;59.332;18.244;2023-04-19T04:42:50;103067.89;;;4.50;95.11
19789;BME280;10054;59.332;18.244;2023-04-19T04:45:20;103066.19;;;4.70;94.29
19789;BME280;10054;59.332;18.244;2023-04-19T04:47:50;103075.78;;;4.86;92.63
19789;BME280;10054;59.332;18.244;2023-04-19T04:50:19;103075.78;;;5.05;93.16
19789;BME280;10054;59.332;18.244;2023-04-19T04:52:49;103072.69;;;5.25;92.01
19789;BME280;10054;59.332;18.244;2023-04-19T04:55:25;103072.66;;;5.48;87.46
19789;BME280;10054;59.332;18.244;2023-04-19T04:57:54;103074.81;;;5.60;89.08
19789;BME280;10054;59.332;18.244;2023-04-19T05:00:25;103073.48;;;5.65;86.59
19789;BME280;10054;59.332;18.244;2023-04-19T05:03:01;103074.79;;;5.67;84.72
19789;BME280;10054;59.332;18.244;2023-04-19T05:05:32;103079.16;;;5.68;86.09
19789;BME280;10054;59.332;18.244;2023-04-19T05:08:01;103075.63;;;5.76;86.26
19789;BME280;10054;59.332;18.244;2023-04-19T05:10:30;103071.27;;;5.78;85.81
19789;BME280;10054;59.332;18.244;2023-04-19T05:13:00;103079.05;;;5.98;85.43
19789;BME280;10054;59.332;18.244;2023-04-19T05:15:29;103070.66;;;6.20;85.56
19789;BME280;10054;59.332;18.244;2023-04-19T05:17:58;103076.31;;;6.24;83.23
19789;BME280;10054;59.332;18.244;2023-04-19T05:20:28;103079.31;;;6.34;82.08
19789;BME280;10054;59.332;18.244;2023-04-19T05:23:05;103080.65;;;6.30;82.18
19789;BME280;10054;59.332;18.244;2023-04-19T05:25:35;103084.48;;;6.48;83.02
19789;BME280;10054;59.332;18.244;2023-04-19T05:28:04;103078.24;;;6.66;81.88
19789;BME280;10054;59.332;18.244;2023-04-19T05:30:35;103080.58;;;6.42;79.43
19789;BME280;10054;59.332;18.244;2023-04-19T05:33:04;103084.48;;;6.48;81.15
19789;BME280;10054;59.332;18.244;2023-04-19T05:35:34;103083.59;;;6.49;80.50
19789;BME280;10054;59.332;18.244;2023-04-19T05:38:03;103087.47;;;6.59;78.64
19789;BME280;10054;59.332;18.244;2023-04-19T05:40:31;103084.00;;;6.54;78.20
19789;BME280;10054;59.332;18.244;2023-04-19T05:43:02;103087.71;;;6.82;80.70
19789;BME280;10054;59.332;18.244;2023-04-19T05:45:31;103085.56;;;6.77;76.33
19789;BME280;10054;59.332;18.244;2023-04-19T05:48:00;103090.39;;;6.74;76.71
19789;BME280;10054;59.332;18.244;2023-04-19T05:50:46;103098.39;;;6.59;77.06
19789;BME280;10054;59.332;18.244;2023-04-19T05:53:32;103087.47;;;6.58;76.40
19789;BME280;10054;59.332;18.244;2023-04-19T05:56:01;103092.61;;;6.70;77.71
19789;BME280;10054;59.332;18.244;2023-04-19T05:58:29;103087.75;;;6.77;78.11
19789;BME280;10054;59.332;18.244;2023-04-19T06:00:58;103089.95;;;6.75;77.53
19789;BME280;10054;59.332;18.244;2023-04-19T06:03:28;103086.84;;;6.81;76.39
19789;BME280;10054;59.332;18.244;2023-04-19T06:05:58;103086.81;;;6.86;75.51
19789;BME280;10054;59.332;18.244;2023-04-19T06:08:27;103096.35;;;6.96;74.57
19789;BME280;10054;59.332;18.244;2023-04-19T06:10:56;103090.20;;;6.99;75.31
19789;BME280;10054;59.332;18.244;2023-04-19T06:13:26;103092.23;;;7.17;76.92
19789;BME280;10054;59.332;18.244;2023-04-19T06:15:55;103092.09;;;7.33;74.11
19789;BME280;10054;59.332;18.244;2023-04-19T06:18:24;103085.53;;;7.33;74.70
19789;BME280;10054;59.332;18.244;2023-04-19T06:20:53;103092.09;;;7.33;72.22
19789;BME280;10054;59.332;18.244;2023-04-19T06:23:22;103091.06;;;7.46;74.61
19789;BME280;10054;59.332;18.244;2023-04-19T06:25:52;103089.59;;;7.61;73.98
19789;BME280;10054;59.332;18.244;2023-04-19T06:28:20;103095.22;;;7.67;72.36
19789;BME280;10054;59.332;18.244;2023-04-19T06:30:50;103100.97;;;7.62;71.06
19789;BME280;10054;59.332;18.244;2023-04-19T06:33:19;103094.80;;;7.66;70.69
19789;BME280;10054;59.332;18.244;2023-04-19T06:35:48;103096.91;;;7.72;71.14
19789;BME280;10054;59.332;18.244;2023-04-19T06:38:17;103098.61;;;7.78;69.70
19789;BME280;10054;59.332;18.244;2023-04-19T06:40:46;103096.34;;;7.85;71.14
19789;BME280;10054;59.332;18.244;2023-04-19T06:43:15;103093.17;;;7.93;69.16
19789;BME280;10054;59.332;18.244;2023-04-19T06:45:44;103094.47;;;7.95;69.57
19789;BME280;10054;59.332;18.244;2023-04-19T06:48:13;103098.77;;;8.02;69.35
19789;BME280;10054;59.332;18.244;2023-04-19T06:50:42;103099.11;;;8.09;69.45
19789;BME280;10054;59.332;18.244;2023-04-19T06:53:11;103092.47;;;8.15;69.03
19789;BME280;10054;59.332;18.244;2023-04-19T06:55:40;103094.03;;;8.27;67.07
19789;BME280;10054;59.332;18.244;2023-04-19T06:58:09;103092.23;;;8.30;67.26
19789;BME280;10054;59.332;18.244;2023-04-19T07:00:38;103095.23;;;8.37;67.50
19789;BME280;10054;59.332;18.244;2023-04-19T07:03:09;103089.89;;;8.43;67.13
19789;BME280;10054;59.332;18.244;2023-04-19T07:05:37;103097.31;;;8.45;64.22
19789;BME280;10054;59.332;18.244;2023-04-19T07:08:06;103084.90;;;8.55;66.68
19789;BME280;10054;59.332;18.244;2023-04-19T07:10:35;103086.45;;;8.68;63.33
19789;BME280;10054;59.332;18.244;2023-04-19T07:13:04;103094.19;;;8.79;63.73
19789;BME280;10054;59.332;18.244;2023-04-19T07:15:33;103095.41;;;8.85;63.25
19789;BME280;10054;59.332;18.244;2023-04-19T07:18:01;103091.84;;;8.89;63.86
19789;BME280;10054;59.332;18.244;2023-04-19T07:20:30;103087.66;;;9.01;62.15
19789;BME280;10054;59.332;18.244;2023-04-19T07:22:59;103088.31;;;9.14;62.66
19789;BME280;10054;59.332;18.244;2023-04-19T07:25:28;103086.16;;;9.12;61.36
19789;BME280;10054;59.332;18.244;2023-04-19T07:27:57;103092.53;;;9.24;59.46
19789;BME280;10054;59.332;18.244;2023-04-19T07:30:25;103089.27;;;9.35;59.24
19789;BME280;10054;59.332;18.244;2023-04-19T07:32:54;103092.94;;;9.50;57.00
19789;BME280;10054;59.332;18.244;2023-04-19T07:35:23;103091.92;;;9.58;57.05
19789;BME280;10054;59.332;18.244;2023-04-19T07:37:52;103089.17;;;9.64;57.80
19789;BME280;10054;59.332;18.244;2023-04-19T07:40:21;103096.21;;;9.63;56.35
19789;BME280;10054;59.332;18.244;2023-04-19T07:42:50;103090.97;;;9.62;55.52
19789;BME280;10054;59.332;18.244;2023-04-19T07:45:19;103087.77;;;9.67;56.53
19789;BME280;10054;59.332;18.244;2023-04-19T07:47:47;103082.49;;;9.67;56.64
19789;BME280;10054;59.332;18.244;2023-04-19T07:50:17;103081.72;;;9.84;55.36
19789;BME280;10054;59.332;18.244;2023-04-19T07:52:46;103084.64;;;9.91;55.40
19789;BME280;10054;59.332;18.244;2023-04-19T07:55:14;103081.85;;;9.99;53.67
19789;BME280;10054;59.332;18.244;2023-04-19T07:57:43;103072.33;;;10.12;54.59
19789;BME280;10054;59.332;18.244;2023-04-19T08:00:15;103072.97;;;10.25;53.26
19789;BME280;10054;59.332;18.244;2023-04-19T08:02:47;103079.54;;;10.44;53.70
19789;BME280;10054;59.332;18.244;2023-04-19T08:05:16;103077.66;;;10.49;50.93
19789;BME280;10054;59.332;18.244;2023-04-19T08:07:45;103078.08;;;10.50;51.75
19789;BME280;10054;59.332;18.244;2023-04-19T08:10:14;103072.42;;;10.48;50.49
19789;BME280;10054;59.332;18.244;2023-04-19T08:12:43;103083.22;;;10.57;50.63
19789;BME280;10054;59.332;18.244;2023-04-19T08:15:12;103074.77;;;10.60;50.59
19789;BME280;10054;59.332;18.244;2023-04-19T08:17:41;103072.52;;;10.63;50.32
19789;BME280;10054;59.332;18.244;2023-04-19T08:20:16;103073.34;;;10.65;50.35
19789;BME280;10054;59.332;18.244;2023-04-19T08:22:45;103073.17;;;10.72;50.12
19789;BME280;10054;59.332;18.244;2023-04-19T08:25:14;103073.13;;;10.74;50.50
19789;BME280;10054;59.332;18.244;2023-04-19T08:27:43;103070.95;;;10.91;51.79
19789;BME280;10054;59.332;18.244;2023-04-19T08:30:12;103071.02;;;11.06;50.83
19789;BME280;10054;59.332;18.244;2023-04-19T08:32:41;103076.00;;;11.16;50.75
19789;BME280;10054;59.332;18.244;2023-04-19T08:35:10;103074.77;;;11.30;49.27
19789;BME280;10054;59.332;18.244;2023-04-19T08:37:39;103071.68;;;11.46;48.85
19789;BME280;10054;59.332;18.244;2023-04-19T08:40:08;103071.68;;;11.46;48.85
19789;BME280;10054;59.332;18.244;2023-04-19T08:42:38;103052.06;;;11.23;48.21
19789;BME280;10054;59.332;18.244;2023-04-19T08:45:07;103052.06;;;11.23;48.21
19789;BME280;10054;59.332;18.244;2023-04-19T08:47:39;103066.19;;;11.38;48.87
19789;BME280;10054;59.332;18.244;2023-04-19T08:50:08;103072.38;;;11.37;47.81
19789;BME280;10054;59.332;18.244;2023-04-19T08:52:37;103076.02;;;11.49;48.48
19789;BME280;10054;59.332;18.244;2023-04-19T08:55:07;103075.27;;;11.44;47.51
19789;BME280;10054;59.332;18.244;2023-04-19T08:57:37;103075.27;;;11.44;47.51
19789;BME280;10054;59.332;18.244;2023-04-19T09:00:06;103071.14;;;11.34;47.26
19789;BME280;10054;59.332;18.244;2023-04-19T09:02:45;103068.25;;;11.43;47.96
19789;BME280;10054;59.332;18.244;2023-04-19T09:05:15;103068.99;;;11.48;47.81
19789;BME280;10054;59.332;18.244;2023-04-19T09:07:45;103057.59;;;11.46;47.23
19789;BME280;10054;59.332;18.244;2023-04-19T09:10:16;103065.81;;;11.51;46.80
19789;BME280;10054;59.332;18.244;2023-04-19T09:13:02;103064.37;;;11.56;45.44
19789;BME280;10054;59.332;18.244;2023-04-19T09:15:39;103061.27;;;11.57;44.88
19789;BME280;10054;59.332;18.244;2023-04-19T09:18:10;103057.13;;;11.63;45.80
19789;BME280;10054;59.332;18.244;2023-04-19T09:20:42;103064.27;;;11.75;45.09
19789;BME280;10054;59.332;18.244;2023-04-19T09:23:14;103065.19;;;11.89;44.15
19789;BME280;10054;59.332;18.244;2023-04-19T09:25:52;103056.58;;;11.97;45.32
19789;BME280;10054;59.332;18.244;2023-04-19T09:28:20;103056.86;;;12.03;44.30
19789;BME280;10054;59.332;18.244;2023-04-19T09:30:49;103057.59;;;12.08;44.69
19789;BME280;10054;59.332;18.244;2023-04-19T09:33:34;103057.26;;;11.89;44.24
19789;BME280;10054;59.332;18.244;2023-04-19T09:36:06;103060.91;;;12.00;44.48
19789;BME280;10054;59.332;18.244;2023-04-19T09:38:48;103057.31;;;12.02;43.42
19789;BME280;10054;59.332;18.244;2023-04-19T09:41:17;103043.48;;;12.07;43.68
19789;BME280;10054;59.332;18.244;2023-04-19T09:43:47;103054.89;;;12.09;43.12
19789;BME280;10054;59.332;18.244;2023-04-19T09:46:36;103047.41;;;12.09;43.78
19789;BME280;10054;59.332;18.244;2023-04-19T09:49:19;103044.90;;;12.19;43.96
19789;BME280;10054;59.332;18.244;2023-04-19T09:51:51;103043.34;;;12.27;43.38
19789;BME280;10054;59.332;18.244;2023-04-19T09:54:22;103047.36;;;12.25;43.04
19789;BME280;10054;59.332;18.244;2023-04-19T09:56:53;103049.60;;;12.09;43.57
19789;BME280;10054;59.332;18.244;2023-04-19T09:59:22;103039.38;;;12.27;43.86
19789;BME280;10054;59.332;18.244;2023-04-19T10:01:54;103037.64;;;12.26;43.14
19789;BME280;10054;59.332;18.244;2023-04-19T10:04:24;103034.75;;;12.33;43.01
19789;BME280;10054;59.332;18.244;2023-04-19T10:06:54;103027.44;;;12.41;42.45
19789;BME280;10054;59.332;18.244;2023-04-19T10:09:23;103036.36;;;12.52;42.98
19789;BME280;10054;59.332;18.244;2023-04-19T10:11:53;103024.98;;;12.35;42.72
19789;BME280;10054;59.332;18.244;2023-04-19T10:14:23;103023.01;;;12.42;42.54
19789;BME280;10054;59.332;18.244;2023-04-19T10:16:55;103039.13;;;12.34;42.19
19789;BME280;10054;59.332;18.244;2023-04-19T10:19:24;103020.39;;;12.27;42.25
19789;BME280;10054;59.332;18.244;2023-04-19T10:21:55;103020.97;;;12.37;42.50
19789;BME280;10054;59.332;18.244;2023-04-19T10:24:25;103029.84;;;12.49;42.04
19789;BME280;10054;59.332;18.244;2023-04-19T10:27:11;103018.74;;;12.51;41.71
19789;BME280;10054;59.332;18.244;2023-04-19T10:30:00;103013.56;;;12.61;41.80
19789;BME280;10054;59.332;18.244;2023-04-19T10:32:42;103018.39;;;12.62;41.32
19789;BME280;10054;59.332;18.244;2023-04-19T10:35:22;103016.94;;;12.65;41.51
19789;BME280;10054;59.332;18.244;2023-04-19T10:38:12;103013.30;;;12.56;41.32
19789;BME280;10054;59.332;18.244;2023-04-19T10:40:55;103022.66;;;12.53;41.44
19789;BME280;10054;59.332;18.244;2023-04-19T10:43:27;103025.20;;;12.42;41.02
19789;BME280;10054;59.332;18.244;2023-04-19T10:46:08;103011.31;;;12.49;41.03
19789;BME280;10054;59.332;18.244;2023-04-19T10:48:31;103011.53;;;12.28;40.53
19789;BME280;10054;59.332;18.244;2023-04-19T10:51:02;103007.42;;;12.33;41.51
19789;BME280;10054;59.332;18.244;2023-04-19T10:53:45;103009.87;;;12.39;40.81
19789;BME280;10054;59.332;18.244;2023-04-19T10:56:16;103007.78;;;12.35;40.80
19789;BME280;10054;59.332;18.244;2023-04-19T11:01:41;103000.51;;;12.42;40.66
19789;BME280;10054;59.332;18.244;2023-04-19T11:04:12;103000.41;;;12.45;41.06
19789;BME280;10054;59.332;18.244;2023-04-19T11:12:16;102999.03;;;12.46;40.48
19789;BME280;10054;59.332;18.244;2023-04-19T11:14:50;102992.97;;;12.43;40.37
19789;BME280;10054;59.332;18.244;2023-04-19T11:17:23;102994.25;;;12.44;40.40
19789;BME280;10054;59.332;18.244;2023-04-19T11:19:58;102989.92;;;12.42;40.54
19789;BME280;10054;59.332;18.244;2023-04-19T11:22:32;102994.39;;;12.40;40.42
19789;BME280;10054;59.332;18.244;2023-04-19T11:25:12;103003.40;;;12.34;41.07
19789;BME280;10054;59.332;18.244;2023-04-19T11:27:42;102989.09;;;12.40;40.60
19789;BME280;10054;59.332;18.244;2023-04-19T11:30:13;102988.66;;;12.54;40.85
19789;BME280;10054;59.332;18.244;2023-04-19T11:32:49;102993.84;;;12.57;39.66
19789;BME280;10054;59.332;18.244;2023-04-19T11:35:22;102989.77;;;12.60;40.34
19789;BME280;10054;59.332;18.244;2023-04-19T11:37:52;102992.86;;;12.33;39.70
19789;BME280;10054;59.332;18.244;2023-04-19T11:40:23;102987.12;;;12.46;40.51
19789;BME280;10054;59.332;18.244;2023-04-19T11:42:56;102989.01;;;12.56;39.85
19789;BME280;10054;59.332;18.244;2023-04-19T11:45:32;102997.21;;;12.62;40.62
19789;BME280;10054;59.332;18.244;2023-04-19T11:48:03;102988.95;;;12.58;39.98
19789;BME280;10054;59.332;18.244;2023-04-19T11:50:41;102997.97;;;12.52;39.88
19789;BME280;10054;59.332;18.244;2023-04-19T11:53:20;103001.02;;;12.53;39.22
19789;BME280;10054;59.332;18.244;2023-04-19T11:55:50;102987.12;;;12.46;39.21
19789;BME280;10054;59.332;18.244;2023-04-19T11:58:27;102996.99;;;12.41;39.85
19789;BME280;10054;59.332;18.244;2023-04-19T12:01:12;102985.70;;;12.49;40.39
19789;BME280;10054;59.332;18.244;2023-04-19T12:03:49;102979.08;;;12.49;39.54
19789;BME280;10054;59.332;18.244;2023-04-19T12:06:29;103002.70;;;12.42;38.90
19789;BME280;10054;59.332;18.244;2023-04-19T12:09:05;102981.06;;;12.43;39.63
19789;BME280;10054;59.332;18.244;2023-04-19T12:11:45;102976.58;;;12.45;40.45
19789;BME280;10054;59.332;18.244;2023-04-19T12:14:16;102997.95;;;12.39;39.87
19789;BME280;10054;59.332;18.244;2023-04-19T12:17:07;102975.86;;;12.40;40.04
19789;BME280;10054;59.332;18.244;2023-04-19T12:19:42;102973.06;;;12.44;40.62
19789;BME280;10054;59.332;18.244;2023-04-19T12:22:16;102969.71;;;12.53;39.99
19789;BME280;10054;59.332;18.244;2023-04-19T12:24:48;102975.67;;;12.59;40.18
19789;BME280;10054;59.332;18.244;2023-04-19T12:27:17;102968.08;;;12.62;40.87
19789;BME280;10054;59.332;18.244;2023-04-19T12:29:46;102968.41;;;12.64;40.87
19789;BME280;10054;59.332;18.244;2023-04-19T12:32:15;102967.38;;;12.68;40.88
19789;BME280;10054;59.332;18.244;2023-04-19T12:34:44;102963.65;;;12.62;40.71
19789;BME280;10054;59.332;18.244;2023-04-19T12:37:14;102962.78;;;12.62;40.79
19789;BME280;10054;59.332;18.244;2023-04-19T12:39:42;102959.48;;;12.55;40.99
19789;BME280;10054;59.332;18.244;2023-04-19T12:42:11;102960.23;;;12.45;40.94
19789;BME280;10054;59.332;18.244;2023-04-19T12:44:40;102960.03;;;12.52;41.90
19789;BME280;10054;59.332;18.244;2023-04-19T12:47:09;102947.92;;;12.58;41.79
19789;BME280;10054;59.332;18.244;2023-04-19T12:49:37;102958.51;;;12.58;41.35
19789;BME280;10054;59.332;18.244;2023-04-19T12:52:06;102945.47;;;12.52;41.72
19789;BME280;10054;59.332;18.244;2023-04-19T12:54:36;102950.20;;;12.55;41.95
19789;BME280;10054;59.332;18.244;2023-04-19T12:57:04;102949.41;;;12.65;41.90
19789;BME280;10054;59.332;18.244;2023-04-19T12:59:34;102939.16;;;12.56;41.28
19789;BME280;10054;59.332;18.244;2023-04-19T13:02:04;102939.31;;;12.51;41.53
19789;BME280;10054;59.332;18.244;2023-04-19T13:04:33;102936.11;;;12.55;42.09
19789;BME280;10054;59.332;18.244;2023-04-19T13:07:02;102934.53;;;12.49;41.90
19789;BME280;10054;59.332;18.244;2023-04-19T13:09:31;102936.87;;;12.58;42.23
19789;BME280;10054;59.332;18.244;2023-04-19T13:12:05;102931.06;;;12.60;42.25
19789;BME280;10054;59.332;18.244;2023-04-19T13:14:34;102936.46;;;12.57;41.89